< Typhoon 201107 2011 Season Typhoon 201109 >
Typhoon 201108 (NOCK-TEN)
General InformationTrack Information on Google MapsDetailed Wind InformationAccess Analytics MapList of All Images || NewsDisaster Info.WeblogTrackbackTyphoon FrontTwiphoonTyphoon Now!Typhoon ImaginationResourceGoogle EarthGE AnimationAtom FeedGeoJSON
Detalied Best Track (Time Zone = UTC)
Year Month Day Hour Lat. Long. Pressure (hPa) Wind (kt) Class Image Chart
2011 7 24 18 12.7 128.1 1004 0 2 Image Chart
2011 7 25 00 13.1 127.1 1002 0 2 Image Chart
2011 7 25 06 13.7 126.1 1000 0 2 Image Chart
2011 7 25 12 13.9 125.2 1000 0 2 Image Chart
2011 7 25 18 14.1 124.3 998 0 2 Image Chart
2011 7 26 00 14.0 123.9 996 35 3 Image Chart
2011 7 26 06 14.2 123.5 992 40 3 Image Chart
2011 7 26 12 14.4 123.1 990 45 3 Image Chart
2011 7 26 18 14.9 122.7 990 45 3 Image Chart
2011 7 27 00 15.6 122.3 990 45 3 Image Chart
2011 7 27 06 16.5 121.6 990 45 3 Image Chart
2011 7 27 12 17.4 120.1 990 45 3 Image Chart
2011 7 27 18 17.9 118.6 990 45 3 Image Chart
2011 7 28 00 18.1 116.8 990 45 3 Image Chart
2011 7 28 06 18.1 115.5 985 50 4 Image Chart
2011 7 28 12 18.2 114.3 985 50 4 Image Chart
2011 7 28 18 18.1 113.3 985 50 4 Image Chart
2011 7 29 00 18.1 112.1 985 50 4 Image Chart
2011 7 29 06 19.1 111.3 985 50 4 Image Chart
2011 7 29 12 19.6 110.1 985 50 4 Image Chart
2011 7 29 18 19.6 109.0 985 50 4 Image Chart
2011 7 30 00 19.6 107.9 985 50 4 Image Chart
2011 7 30 06 19.6 106.6 990 45 3 Image Chart
2011 7 30 12 19.0 105.1 992 40 3 Image Chart
2011 7 30 18 18.4 103.7 994 35 3 Image Chart
2011 7 31 00 18.0 102.1 996 0 2 Image Chart
Japan Meteorological Agency Best Track Data | Correction Date : 2011-08-31
< Typhoon 201107 2011 Season Typhoon 201109 >

Help